Portada
METAR-TAF:

METAR-TAF

Aeropuertos :

Aeropuerto de Badajoz

Badajoz, España

latitud: 38-53N, longitud: 006-49W, altitud: 185 m

Observación

El informe se hizo hace 5 horas y 39 minutos, a las 19:00 UTC
Viento 5 kt del oeste
Temperatura 14°C
Humedad 77%
Presión 1014 hPa
Visibilidad 10 km o más
Escasas nubes a una altura de 3400 ft

METAR: LEBZ 101900Z 28005KT 9999 FEW034 14/10 Q1014

Hora: 02:39 (00:39 UTC)

Pronóstico

El informe se hizo hace 4 horas y 39 minutos, a las 20:00 UTC
Pronóstico válido del 10 a las 21 UTC al 11 a las 21 UTC
Viento 8 kt del oeste
Visibilidad 10 km o más
Escasas nubes a una altura de 4000 ft

TAF: LEBZ 102000Z 1021/1121 28008KT 9999 FEW040 TX21/1115Z TN08/1106Z

Observaciones y pronósticos meteorológicos de más de 4000 aeropuertos (mensajes METAR y TAF).

Los puntos amarillos y rojos representan las estaciones disponibles.

Ponga el ratón en el punto deseado para ver el nombre de la estación.

Haga clic para ver las observaciones y los pronósticos meteorológicos.

Para cambiar el mapa : haga clic en los botones verdes con una cruz de color negro para hacer un zoom, en el botón verde con un guión para alejar o en las flechas verdes para mapas adyacentes.


METAR-TAF: